createdAt,value
2019-05-17T04:02:48.840Z,11.50
2019-05-17T04:05:22.449Z,11.20
2019-05-17T04:07:55.737Z,11.20
2019-05-17T04:10:27.618Z,11.30
2019-05-17T04:12:58.437Z,11.40
2019-05-17T04:15:28.976Z,11.50
2019-05-17T04:18:03.716Z,11.40
2019-05-17T04:20:33.483Z,11.40
2019-05-17T04:23:04.492Z,11.40
2019-05-17T04:25:38.649Z,11.40
2019-05-17T04:28:13.344Z,11.40
2019-05-17T04:30:45.255Z,11.40
2019-05-17T04:33:15.821Z,11.50
2019-05-17T04:35:47.769Z,11.60
2019-05-17T04:38:19.783Z,11.70
2019-05-17T04:40:53.446Z,11.70
2019-05-17T04:43:23.778Z,11.80
2019-05-17T04:45:54.348Z,11.80
2019-05-17T04:48:25.027Z,11.90
2019-05-17T04:50:57.713Z,11.90
2019-05-17T04:53:32.507Z,11.90
2019-05-17T04:56:03.114Z,11.90
2019-05-17T04:58:34.054Z,11.90
2019-05-17T05:01:07.602Z,11.90
2019-05-17T05:03:38.946Z,12.00
2019-05-17T05:06:13.073Z,12.60
2019-05-17T05:08:43.329Z,13.00
2019-05-17T05:11:14.798Z,13.30
2019-05-17T05:13:46.166Z,13.40
2019-05-17T05:16:17.210Z,13.60
2019-05-17T05:18:52.128Z,14.00
2019-05-17T05:21:23.289Z,14.60
2019-05-17T05:23:53.848Z,14.70
2019-05-17T05:26:24.509Z,14.70
2019-05-17T05:28:55.124Z,14.70
2019-05-17T05:31:29.044Z,14.80
2019-05-17T05:34:01.673Z,15.00
2019-05-17T05:36:34.642Z,15.00
2019-05-17T05:39:05.294Z,15.50
2019-05-17T05:41:35.780Z,15.60
2019-05-17T05:44:08.386Z,15.70
2019-05-17T05:46:38.832Z,15.60
2019-05-17T05:49:12.376Z,15.60
2019-05-17T05:51:43.041Z,16.50
2019-05-17T05:54:15.303Z,16.90
2019-05-17T05:56:46.384Z,17.80
2019-05-17T05:59:16.962Z,17.80
2019-05-17T06:01:49.370Z,17.90
2019-05-17T06:04:22.293Z,17.90
2019-05-17T06:06:53.643Z,18.00
2019-05-17T06:09:24.585Z,18.40
2019-05-17T06:11:55.553Z,19.00
2019-05-17T06:14:26.646Z,19.70
2019-05-17T06:16:57.153Z,20.50
2019-05-17T06:19:31.517Z,21.00
2019-05-17T06:22:02.960Z,21.90
2019-05-17T06:24:34.157Z,23.10
2019-05-17T06:27:04.755Z,24.20
2019-05-17T06:29:35.271Z,24.50
2019-05-17T06:32:09.023Z,25.00
2019-05-17T06:34:42.495Z,25.30
2019-05-17T06:37:16.506Z,24.80
2019-05-17T06:39:46.680Z,25.00
2019-05-17T06:42:17.240Z,24.50
2019-05-17T06:44:48.949Z,23.80
2019-05-17T06:47:19.814Z,23.50
2019-05-17T06:49:53.483Z,23.50
2019-05-17T06:52:23.630Z,23.80
2019-05-17T06:54:56.864Z,24.30
2019-05-17T06:57:27.676Z,24.50
2019-05-17T06:59:59.346Z,24.30
2019-05-17T07:02:35.923Z,24.50
2019-05-17T07:05:14.028Z,25.70
2019-05-17T07:07:44.586Z,26.00
2019-05-17T07:10:15.944Z,25.90
2019-05-17T07:12:58.294Z,26.60
2019-05-17T07:15:21.746Z,27.70
2019-05-17T07:17:56.201Z,28.10
2019-05-17T07:20:25.298Z,28.00
2019-05-17T07:23:00.235Z,28.00
2019-05-17T07:25:30.351Z,29.00
2019-05-17T07:28:02.253Z,29.20
2019-05-17T07:30:33.544Z,29.30
2019-05-17T07:33:04.106Z,29.60
2019-05-17T07:35:34.905Z,29.30
2019-05-17T07:38:10.532Z,30.10
2019-05-17T07:40:41.207Z,30.50
2019-05-17T07:43:14.689Z,30.60
2019-05-17T07:45:46.423Z,30.20
2019-05-17T07:48:16.193Z,30.00
2019-05-17T07:50:46.768Z,30.60
2019-05-17T07:53:19.770Z,30.90
2019-05-17T07:55:50.552Z,30.00
2019-05-17T07:58:24.041Z,29.80
2019-05-17T08:00:57.902Z,29.60
2019-05-17T08:03:29.863Z,29.50
2019-05-17T08:12:03.324Z,30.60
2019-05-17T08:14:33.815Z,31.00
2019-05-17T08:17:06.913Z,31.10
2019-05-17T08:19:41.117Z,31.20
2019-05-17T08:22:13.431Z,31.40
2019-05-17T08:24:44.012Z,31.30
2019-05-17T08:27:16.679Z,31.30
2019-05-17T08:29:47.225Z,31.60
2019-05-17T08:32:20.597Z,31.20
2019-05-17T08:34:52.288Z,30.90
2019-05-17T08:37:22.817Z,31.00
2019-05-17T08:39:53.318Z,30.90
2019-05-17T08:42:23.868Z,31.10
2019-05-17T08:44:54.438Z,31.40
2019-05-17T08:47:25.895Z,31.60
2019-05-17T08:50:00.212Z,31.60
2019-05-17T08:52:30.159Z,31.70
2019-05-17T08:55:02.821Z,31.40
2019-05-17T08:57:35.084Z,31.40
2019-05-17T09:00:10.478Z,31.40
2019-05-17T09:02:44.392Z,31.60
2019-05-17T09:05:15.003Z,31.60
2019-05-17T09:07:49.275Z,31.00
2019-05-17T09:10:21.001Z,31.10
2019-05-17T09:12:59.667Z,30.90
2019-05-17T09:15:29.635Z,30.70
2019-05-17T09:18:02.945Z,30.60
2019-05-17T09:20:36.278Z,30.30
2019-05-17T09:23:10.090Z,30.40
2019-05-17T09:25:41.456Z,30.70
2019-05-17T09:28:12.425Z,30.90
2019-05-17T09:30:45.880Z,30.30
2019-05-17T09:33:16.406Z,30.70
2019-05-17T09:35:49.995Z,30.40
2019-05-17T09:38:20.488Z,30.50
2019-05-17T09:40:51.507Z,30.00
2019-05-17T09:43:22.092Z,29.50
2019-05-17T09:45:53.184Z,29.20
2019-05-17T09:48:24.612Z,29.40
2019-05-17T09:50:56.608Z,29.50
2019-05-17T09:53:27.091Z,29.00
2019-05-17T09:55:57.730Z,29.50
2019-05-17T09:58:31.460Z,29.50
2019-05-17T10:01:04.864Z,29.70
2019-05-17T10:03:35.453Z,29.50
2019-05-17T10:06:06.488Z,29.40
2019-05-17T10:08:39.437Z,29.10
2019-05-17T10:11:12.140Z,28.90
2019-05-17T10:13:43.656Z,28.20
2019-05-17T10:16:14.335Z,28.30
2019-05-17T10:18:45.012Z,28.20
2019-05-17T10:21:19.883Z,28.10
2019-05-17T10:23:51.898Z,28.00
2019-05-17T10:26:22.872Z,28.00
2019-05-17T10:28:53.455Z,27.80
2019-05-17T10:31:24.621Z,27.50
2019-05-17T10:33:58.082Z,27.40
2019-05-17T10:36:29.389Z,27.70
2019-05-17T10:38:59.898Z,27.80
2019-05-17T10:41:33.511Z,28.00
2019-05-17T10:44:04.091Z,27.90
2019-05-17T10:46:35.277Z,27.80
2019-05-17T10:49:06.089Z,28.00
2019-05-17T10:51:36.553Z,28.00
2019-05-17T10:54:09.448Z,28.00
2019-05-17T10:56:40.580Z,27.80
2019-05-17T10:59:16.374Z,27.70
2019-05-17T11:01:46.908Z,27.70
2019-05-17T11:04:19.767Z,27.80
2019-05-17T11:06:52.083Z,27.90
2019-05-17T11:09:23.036Z,27.80
2019-05-17T11:11:54.428Z,27.70
2019-05-17T11:14:26.885Z,27.90
2019-05-17T11:17:00.054Z,28.10
2019-05-17T11:19:29.923Z,27.80
2019-05-17T11:22:00.544Z,27.60
2019-05-17T11:24:36.367Z,27.70
2019-05-17T11:27:06.842Z,27.90
2019-05-17T11:29:37.746Z,28.00
2019-05-17T11:32:08.348Z,27.60
2019-05-17T11:34:45.447Z,27.30
2019-05-17T11:37:20.400Z,27.10
2019-05-17T11:39:51.224Z,27.30
2019-05-17T11:42:21.847Z,27.50
2019-05-17T11:44:52.387Z,27.70
2019-05-17T11:47:23.035Z,27.40
2019-05-17T11:49:57.410Z,27.50
2019-05-17T11:52:28.199Z,27.40
2019-05-17T11:54:59.248Z,27.60
2019-05-17T11:57:29.739Z,27.70
2019-05-17T12:00:01.571Z,27.60
2019-05-17T12:02:33.058Z,27.20
2019-05-17T12:05:06.413Z,27.20
2019-05-17T12:07:36.803Z,27.20
2019-05-17T12:10:09.697Z,26.90
2019-05-17T12:12:40.225Z,26.50
2019-05-17T12:15:14.650Z,26.10
2019-05-17T12:17:45.553Z,25.60
2019-05-17T12:20:16.917Z,25.10
2019-05-17T12:22:54.621Z,24.60
2019-05-17T12:25:21.089Z,24.30
2019-05-17T12:27:52.535Z,24.20
2019-05-17T12:30:23.487Z,24.00
2019-05-17T12:32:53.955Z,24.10
2019-05-17T12:35:24.894Z,24.10
2019-05-17T12:37:55.359Z,24.30
2019-05-17T12:40:30.134Z,24.50
2019-05-17T12:43:00.708Z,24.70
2019-05-17T12:45:31.326Z,24.80
2019-05-17T12:48:04.988Z,24.60
2019-05-17T12:50:36.183Z,24.40
2019-05-17T12:53:07.731Z,24.20
2019-05-17T12:55:39.364Z,24.10
2019-05-17T12:58:11.180Z,24.00
2019-05-17T13:00:41.998Z,23.90
2019-05-17T13:03:12.472Z,23.80
2019-05-17T13:05:44.543Z,23.80
2019-05-17T13:08:15.394Z,23.80
2019-05-17T13:10:45.904Z,23.80
2019-05-17T13:13:16.924Z,23.70
2019-05-17T13:15:48.256Z,23.80
2019-05-17T13:18:20.778Z,23.80
2019-05-17T13:20:52.988Z,24.00
2019-05-17T13:23:23.463Z,23.90
2019-05-17T13:25:59.322Z,23.90
2019-05-17T13:28:34.517Z,23.80
2019-05-17T13:31:05.454Z,23.60
2019-05-17T13:33:35.940Z,23.60
2019-05-17T13:36:08.259Z,23.30
2019-05-17T13:38:38.989Z,23.00
2019-05-17T13:41:09.685Z,22.90
2019-05-17T13:43:43.584Z,22.80
2019-05-17T13:46:30.735Z,22.70
2019-05-17T13:48:51.354Z,22.60
2019-05-17T13:51:22.593Z,22.50
2019-05-17T13:53:53.525Z,22.30
2019-05-17T13:56:23.979Z,22.20
2019-05-17T13:58:58.321Z,22.10
2019-05-17T14:01:29.610Z,22.00
2019-05-17T14:04:01.795Z,21.80
2019-05-17T14:06:32.743Z,21.90
2019-05-17T14:09:05.471Z,21.90
2019-05-17T14:11:40.522Z,21.90
2019-05-17T14:14:11.097Z,21.90
2019-05-17T14:32:30.312Z,22.10
2019-05-17T14:35:02.588Z,22.10
2019-05-17T14:37:33.146Z,22.20
2019-05-17T14:40:05.607Z,22.20
2019-05-17T14:42:37.403Z,22.00
2019-05-17T14:45:08.570Z,21.80
2019-05-17T14:47:39.117Z,21.70
2019-05-17T14:50:13.494Z,21.70
2019-05-17T14:52:48.775Z,21.60
2019-05-17T14:55:24.044Z,21.50
2019-05-17T14:57:54.571Z,21.40
2019-05-17T15:00:26.966Z,21.40
2019-05-17T15:02:57.324Z,21.40
2019-05-17T15:05:33.444Z,21.40
2019-05-17T15:08:03.609Z,21.40
2019-05-17T15:10:35.675Z,21.30
2019-05-17T15:13:06.265Z,21.30
2019-05-17T15:15:39.702Z,21.20
2019-05-17T15:18:10.790Z,21.30
2019-05-17T15:20:43.970Z,21.20
2019-05-17T15:23:13.674Z,21.10
2019-05-17T15:25:44.232Z,21.00
2019-05-17T15:28:15.414Z,21.00
2019-05-17T15:30:45.947Z,21.00
2019-05-17T15:33:19.228Z,21.00
2019-05-17T15:35:49.833Z,20.90
2019-05-17T15:38:23.296Z,21.00
2019-05-17T15:40:53.494Z,21.00
2019-05-17T15:43:24.559Z,20.90
2019-05-17T15:45:56.392Z,20.90
2019-05-17T15:48:27.556Z,20.90
2019-05-17T15:50:59.017Z,21.00
2019-05-17T15:53:30.947Z,21.10
2019-05-17T15:56:03.422Z,21.10
2019-05-17T15:58:39.237Z,21.10
2019-05-17T16:01:11.800Z,21.00
2019-05-17T16:03:42.544Z,20.90
2019-05-17T16:06:13.128Z,21.00
2019-05-17T16:08:43.854Z,21.00
2019-05-17T16:11:15.810Z,20.90
2019-05-17T16:13:48.018Z,20.90
2019-05-17T16:16:18.930Z,20.90
2019-05-17T16:18:50.507Z,20.90
2019-05-17T16:21:21.111Z,20.90
2019-05-17T16:23:52.038Z,20.90
2019-05-17T16:26:25.953Z,20.80
2019-05-17T16:28:59.813Z,20.80
2019-05-17T16:31:32.022Z,20.80
2019-05-17T16:34:03.361Z,20.60
2019-05-17T16:36:35.068Z,20.60
2019-05-17T16:39:09.228Z,20.50
2019-05-17T16:41:39.655Z,20.40
2019-05-17T16:44:10.531Z,20.30
2019-05-17T16:46:45.877Z,20.20
2019-05-17T16:49:17.202Z,20.10
2019-05-17T16:51:47.808Z,20.00
2019-05-17T16:54:18.966Z,20.00
2019-05-17T16:56:49.484Z,19.90
2019-05-17T16:59:20.387Z,19.90
2019-05-17T17:01:51.403Z,19.80
2019-05-17T17:04:21.858Z,19.80
2019-05-17T17:06:56.836Z,19.80
2019-05-17T17:09:27.551Z,19.70
2019-05-17T17:12:02.874Z,19.60
2019-05-17T17:14:33.509Z,19.60
2019-05-17T17:17:10.260Z,19.60
2019-05-17T17:19:37.429Z,19.50
2019-05-17T17:22:10.252Z,19.50
2019-05-17T17:24:41.625Z,19.40
2019-05-17T17:27:15.441Z,19.30
2019-05-17T17:29:46.634Z,19.30
2019-05-17T17:32:21.502Z,19.10
2019-05-17T17:34:49.387Z,19.10
2019-05-17T17:37:19.897Z,19.00
2019-05-17T17:39:53.222Z,18.90
2019-05-17T17:42:24.012Z,18.70
2019-05-17T17:44:58.065Z,18.70
2019-05-17T17:47:28.659Z,18.60
2019-05-17T17:49:59.151Z,18.50
2019-05-17T17:52:43.344Z,18.40
2019-05-17T17:55:18.534Z,18.30
2019-05-17T17:57:49.766Z,18.20
2019-05-17T18:00:22.496Z,18.10
2019-05-17T18:02:53.206Z,18.00
2019-05-17T18:05:25.133Z,17.90
2019-05-17T18:07:56.005Z,17.80
2019-05-17T18:10:33.037Z,17.70
2019-05-17T18:13:03.676Z,17.60
2019-05-17T18:15:41.114Z,17.50
2019-05-17T18:18:11.758Z,17.30
2019-05-17T18:20:47.048Z,17.20
2019-05-17T18:23:22.976Z,17.10
2019-05-17T18:25:52.610Z,16.90
2019-05-17T18:28:23.205Z,16.80
2019-05-17T18:30:57.481Z,16.70
2019-05-17T18:33:28.875Z,16.60
2019-05-17T18:36:03.333Z,16.50
2019-05-17T18:38:37.027Z,16.50
2019-05-17T18:41:07.762Z,16.40
2019-05-17T18:43:38.448Z,16.30
2019-05-17T18:46:09.003Z,16.20
2019-05-17T18:48:40.555Z,16.20
2019-05-17T18:51:12.008Z,16.10
2019-05-17T18:53:44.191Z,15.90
2019-05-17T18:56:14.823Z,15.90
2019-05-17T18:58:48.203Z,15.80
2019-05-17T19:01:18.710Z,15.80
2019-05-17T19:03:49.336Z,15.80
2019-05-17T19:06:19.958Z,15.60
2019-05-17T19:08:55.143Z,15.60
2019-05-17T19:11:29.125Z,15.60
2019-05-17T19:13:58.954Z,15.40
2019-05-17T19:16:30.331Z,15.40
2019-05-17T19:19:00.917Z,15.30
2019-05-17T19:21:31.463Z,15.30
2019-05-17T19:24:01.989Z,15.30
2019-05-17T19:26:32.458Z,15.20
2019-05-17T19:29:03.443Z,15.10
2019-05-17T19:31:34.825Z,15.10
2019-05-17T19:34:05.841Z,15.10
2019-05-17T19:36:41.646Z,15.10
2019-05-17T19:39:12.308Z,15.10
2019-05-17T19:41:42.891Z,15.10
2019-05-17T19:44:13.782Z,15.10
2019-05-17T19:46:44.319Z,15.10
2019-05-17T19:49:14.901Z,15.00
2019-05-17T19:51:45.796Z,15.00
2019-05-17T19:54:17.477Z,14.90
2019-05-17T19:56:48.310Z,14.90
2019-05-17T19:59:21.143Z,14.80
2019-05-17T20:01:52.123Z,14.80
2019-05-17T20:04:22.773Z,14.80
2019-05-17T20:06:53.338Z,14.70
2019-05-17T20:09:24.075Z,14.70
2019-05-17T20:11:54.758Z,14.70
2019-05-17T20:14:25.493Z,14.70
2019-05-17T20:16:56.309Z,14.60
2019-05-17T20:19:27.252Z,14.60
2019-05-17T20:21:58.076Z,14.50
2019-05-17T20:24:28.979Z,14.50
2019-05-17T20:26:59.562Z,14.40
2019-05-17T20:29:30.198Z,14.40
2019-05-17T20:32:00.948Z,14.40
2019-05-17T20:34:31.615Z,14.40
2019-05-17T20:37:06.029Z,14.30
2019-05-17T20:42:16.898Z,14.30
2019-05-17T20:44:47.795Z,14.30
2019-05-17T20:47:20.180Z,14.30
2019-05-17T20:49:50.731Z,14.20
2019-05-17T20:52:21.638Z,14.20
2019-05-17T20:54:55.631Z,14.10
2019-05-17T20:57:27.048Z,14.00
2019-05-17T20:59:57.727Z,14.00
2019-05-17T21:02:28.882Z,14.00
2019-05-17T21:04:59.438Z,13.90
2019-05-17T21:07:30.039Z,13.90
2019-05-17T21:10:01.079Z,13.80
2019-05-17T21:12:31.586Z,13.80
2019-05-17T21:15:02.052Z,13.90
2019-05-17T21:17:33.069Z,13.80
2019-05-17T21:20:04.588Z,13.80
2019-05-17T21:22:35.047Z,13.80
2019-05-17T21:25:07.630Z,13.70
2019-05-17T21:27:41.581Z,13.70
2019-05-17T21:30:13.035Z,13.60
2019-05-17T21:32:46.434Z,13.60
2019-05-17T21:35:17.107Z,13.60
2019-05-17T21:37:48.810Z,13.60
2019-05-17T21:40:20.535Z,13.60
2019-05-17T21:42:51.316Z,13.60
2019-05-17T21:45:22.365Z,13.60
2019-05-17T21:47:53.333Z,13.60
2019-05-17T21:50:23.912Z,13.60
2019-05-17T21:52:54.460Z,13.70
2019-05-17T21:55:25.844Z,13.70
2019-05-17T21:57:56.922Z,13.70
2019-05-17T22:00:53.605Z,13.70
2019-05-17T22:03:24.672Z,13.60
2019-05-17T22:05:55.134Z,13.60
2019-05-17T22:08:25.685Z,13.50
2019-05-17T22:10:56.217Z,13.50
2019-05-17T22:13:30.679Z,13.50
2019-05-17T22:16:01.818Z,13.50
2019-05-17T22:18:33.438Z,13.40
2019-05-17T22:21:04.657Z,13.40
2019-05-17T22:23:38.910Z,13.40
2019-05-17T22:26:09.510Z,13.40
2019-05-17T22:28:40.856Z,13.40
2019-05-17T22:31:11.529Z,13.40
2019-05-17T22:33:41.963Z,13.40
2019-05-17T22:36:12.841Z,13.40
2019-05-17T22:39:01.859Z,13.40
2019-05-17T22:41:32.351Z,13.40
2019-05-17T22:47:03.258Z,13.40
2019-05-17T22:49:33.905Z,13.40
2019-05-17T22:52:04.691Z,13.30
2019-05-17T22:54:45.043Z,13.30
2019-05-17T22:57:16.965Z,13.30
2019-05-17T22:59:50.235Z,13.20
2019-05-17T23:02:20.833Z,13.20
2019-05-17T23:04:51.740Z,13.10
2019-05-17T23:07:25.816Z,13.10
2019-05-17T23:09:56.272Z,13.00
2019-05-17T23:12:26.806Z,13.00
2019-05-17T23:15:02.440Z,12.90
2019-05-17T23:17:34.020Z,12.90
2019-05-17T23:20:06.686Z,12.90
2019-05-17T23:22:40.731Z,12.80
2019-05-17T23:25:15.061Z,12.90
2019-05-17T23:27:45.675Z,12.80
2019-05-17T23:30:16.771Z,12.80
2019-05-17T23:32:47.338Z,12.70
2019-05-17T23:35:17.871Z,12.70
2019-05-17T23:37:49.701Z,12.60
2019-05-17T23:40:22.021Z,12.60
2019-05-17T23:42:53.892Z,12.50
2019-05-17T23:45:24.909Z,12.50
2019-05-17T23:47:55.442Z,12.50
2019-05-17T23:50:27.078Z,12.50
2019-05-17T23:52:58.371Z,12.50
2019-05-17T23:55:29.074Z,12.50
2019-05-17T23:58:00.153Z,12.60
